sensor_id;sensor_type;location;lat;lon;timestamp;P1;durP1;ratioP1;P2;durP2;ratioP2
35891;SDS011;21993;42.672;23.296;2022-11-23T00:00:35;15.70;;;9.40;;
35891;SDS011;21993;42.672;23.296;2022-11-23T00:03:01;14.60;;;10.07;;
35891;SDS011;21993;42.672;23.296;2022-11-23T00:05:27;17.93;;;9.77;;
35891;SDS011;21993;42.672;23.296;2022-11-23T00:07:53;13.70;;;9.03;;
35891;SDS011;21993;42.672;23.296;2022-11-23T00:10:18;13.57;;;8.50;;
35891;SDS011;21993;42.672;23.296;2022-11-23T00:12:44;14.90;;;8.53;;
35891;SDS011;21993;42.672;23.296;2022-11-23T00:15:10;12.73;;;8.10;;
35891;SDS011;21993;42.672;23.296;2022-11-23T00:17:37;13.30;;;8.87;;
35891;SDS011;21993;42.672;23.296;2022-11-23T00:20:03;13.43;;;8.33;;
35891;SDS011;21993;42.672;23.296;2022-11-23T00:22:29;12.87;;;7.37;;
35891;SDS011;21993;42.672;23.296;2022-11-23T00:24:55;12.73;;;7.17;;
35891;SDS011;21993;42.672;23.296;2022-11-23T00:27:20;12.20;;;8.07;;
35891;SDS011;21993;42.672;23.296;2022-11-23T00:29:45;12.03;;;7.27;;
35891;SDS011;21993;42.672;23.296;2022-11-23T00:32:11;12.03;;;7.67;;
35891;SDS011;21993;42.672;23.296;2022-11-23T00:34:36;15.77;;;8.50;;
35891;SDS011;21993;42.672;23.296;2022-11-23T00:37:01;12.80;;;7.17;;
35891;SDS011;21993;42.672;23.296;2022-11-23T00:39:27;12.00;;;7.87;;
35891;SDS011;21993;42.672;23.296;2022-11-23T00:41:52;11.03;;;6.50;;
35891;SDS011;21993;42.672;23.296;2022-11-23T00:44:18;13.60;;;8.37;;
35891;SDS011;21993;42.672;23.296;2022-11-23T00:46:43;10.73;;;7.27;;
35891;SDS011;21993;42.672;23.296;2022-11-23T00:49:08;11.93;;;7.20;;
35891;SDS011;21993;42.672;23.296;2022-11-23T00:51:34;9.90;;;6.47;;
35891;SDS011;21993;42.672;23.296;2022-11-23T00:54:01;9.77;;;7.10;;
35891;SDS011;21993;42.672;23.296;2022-11-23T00:56:29;10.70;;;6.97;;
35891;SDS011;21993;42.672;23.296;2022-11-23T00:58:56;10.90;;;7.10;;
35891;SDS011;21993;42.672;23.296;2022-11-23T01:01:24;11.53;;;8.03;;
35891;SDS011;21993;42.672;23.296;2022-11-23T01:03:52;11.00;;;7.53;;
35891;SDS011;21993;42.672;23.296;2022-11-23T01:06:23;12.70;;;7.90;;
35891;SDS011;21993;42.672;23.296;2022-11-23T01:08:51;11.90;;;8.50;;
35891;SDS011;21993;42.672;23.296;2022-11-23T01:11:19;11.83;;;7.93;;
35891;SDS011;21993;42.672;23.296;2022-11-23T01:13:45;13.20;;;8.57;;
35891;SDS011;21993;42.672;23.296;2022-11-23T01:16:15;12.13;;;7.13;;
35891;SDS011;21993;42.672;23.296;2022-11-23T01:18:59;12.77;;;7.77;;
35891;SDS011;21993;42.672;23.296;2022-11-23T01:21:26;12.67;;;7.60;;
35891;SDS011;21993;42.672;23.296;2022-11-23T01:23:53;13.40;;;8.27;;
35891;SDS011;21993;42.672;23.296;2022-11-23T01:26:19;12.83;;;6.53;;
35891;SDS011;21993;42.672;23.296;2022-11-23T01:28:45;9.37;;;6.00;;
35891;SDS011;21993;42.672;23.296;2022-11-23T01:31:12;11.43;;;6.50;;
35891;SDS011;21993;42.672;23.296;2022-11-23T01:33:39;7.43;;;6.10;;
35891;SDS011;21993;42.672;23.296;2022-11-23T01:36:08;10.50;;;6.70;;
35891;SDS011;21993;42.672;23.296;2022-11-23T01:38:38;10.03;;;6.63;;
35891;SDS011;21993;42.672;23.296;2022-11-23T01:41:05;10.80;;;6.67;;
35891;SDS011;21993;42.672;23.296;2022-11-23T01:43:31;7.37;;;5.90;;
35891;SDS011;21993;42.672;23.296;2022-11-23T01:45:58;10.33;;;6.07;;
35891;SDS011;21993;42.672;23.296;2022-11-23T01:48:25;7.40;;;5.70;;
35891;SDS011;21993;42.672;23.296;2022-11-23T01:51:15;8.63;;;5.33;;
35891;SDS011;21993;42.672;23.296;2022-11-23T01:53:44;7.90;;;5.63;;
35891;SDS011;21993;42.672;23.296;2022-11-23T01:56:13;8.10;;;5.17;;
35891;SDS011;21993;42.672;23.296;2022-11-23T01:58:42;10.00;;;5.50;;
35891;SDS011;21993;42.672;23.296;2022-11-23T02:01:12;8.00;;;5.40;;
35891;SDS011;21993;42.672;23.296;2022-11-23T02:03:38;8.47;;;5.43;;
35891;SDS011;21993;42.672;23.296;2022-11-23T02:06:07;10.63;;;5.40;;
35891;SDS011;21993;42.672;23.296;2022-11-23T02:08:37;9.63;;;5.70;;
35891;SDS011;21993;42.672;23.296;2022-11-23T02:11:03;9.70;;;5.63;;
35891;SDS011;21993;42.672;23.296;2022-11-23T02:13:28;6.27;;;5.10;;
35891;SDS011;21993;42.672;23.296;2022-11-23T02:15:55;9.13;;;6.17;;
35891;SDS011;21993;42.672;23.296;2022-11-23T02:18:22;10.57;;;6.23;;
35891;SDS011;21993;42.672;23.296;2022-11-23T02:20:50;9.73;;;6.10;;
35891;SDS011;21993;42.672;23.296;2022-11-23T02:28:17;8.63;;;6.00;;
35891;SDS011;21993;42.672;23.296;2022-11-23T02:30:47;11.20;;;6.63;;
35891;SDS011;21993;42.672;23.296;2022-11-23T02:33:15;8.10;;;6.10;;
35891;SDS011;21993;42.672;23.296;2022-11-23T02:35:48;10.63;;;6.73;;
35891;SDS011;21993;42.672;23.296;2022-11-23T02:38:19;11.87;;;6.50;;
35891;SDS011;21993;42.672;23.296;2022-11-23T02:40:45;10.60;;;6.97;;
35891;SDS011;21993;42.672;23.296;2022-11-23T02:43:11;10.03;;;7.00;;
35891;SDS011;21993;42.672;23.296;2022-11-23T02:45:38;11.70;;;6.87;;
35891;SDS011;21993;42.672;23.296;2022-11-23T02:48:25;8.67;;;7.10;;
35891;SDS011;21993;42.672;23.296;2022-11-23T02:50:51;11.13;;;7.47;;
35891;SDS011;21993;42.672;23.296;2022-11-23T02:53:16;13.83;;;8.13;;
35891;SDS011;21993;42.672;23.296;2022-11-23T02:55:42;11.90;;;6.90;;
35891;SDS011;21993;42.672;23.296;2022-11-23T02:58:08;14.77;;;8.20;;
35891;SDS011;21993;42.672;23.296;2022-11-23T03:00:33;17.53;;;9.50;;
35891;SDS011;21993;42.672;23.296;2022-11-23T03:03:00;11.13;;;7.27;;
35891;SDS011;21993;42.672;23.296;2022-11-23T03:05:26;13.40;;;8.03;;
35891;SDS011;21993;42.672;23.296;2022-11-23T03:07:52;14.80;;;8.53;;
35891;SDS011;21993;42.672;23.296;2022-11-23T03:10:18;14.13;;;8.20;;
35891;SDS011;21993;42.672;23.296;2022-11-23T03:12:44;12.27;;;8.60;;
35891;SDS011;21993;42.672;23.296;2022-11-23T03:15:09;11.20;;;8.17;;
35891;SDS011;21993;42.672;23.296;2022-11-23T03:17:35;12.57;;;8.23;;
35891;SDS011;21993;42.672;23.296;2022-11-23T03:20:00;10.90;;;7.77;;
35891;SDS011;21993;42.672;23.296;2022-11-23T03:22:26;15.03;;;8.70;;
35891;SDS011;21993;42.672;23.296;2022-11-23T03:24:52;14.73;;;8.70;;
35891;SDS011;21993;42.672;23.296;2022-11-23T03:27:17;16.77;;;8.97;;
35891;SDS011;21993;42.672;23.296;2022-11-23T03:29:43;13.37;;;7.93;;
35891;SDS011;21993;42.672;23.296;2022-11-23T03:32:08;11.33;;;7.57;;
35891;SDS011;21993;42.672;23.296;2022-11-23T03:34:34;11.77;;;8.60;;
35891;SDS011;21993;42.672;23.296;2022-11-23T03:36:59;12.37;;;8.33;;
35891;SDS011;21993;42.672;23.296;2022-11-23T03:39:25;14.73;;;7.97;;
35891;SDS011;21993;42.672;23.296;2022-11-23T03:41:50;13.03;;;8.77;;
35891;SDS011;21993;42.672;23.296;2022-11-23T03:44:15;11.93;;;7.30;;
35891;SDS011;21993;42.672;23.296;2022-11-23T03:46:41;15.17;;;9.23;;
35891;SDS011;21993;42.672;23.296;2022-11-23T03:49:06;11.00;;;8.13;;
35891;SDS011;21993;42.672;23.296;2022-11-23T03:51:31;21.33;;;7.50;;
35891;SDS011;21993;42.672;23.296;2022-11-23T03:53:57;11.03;;;6.83;;
35891;SDS011;21993;42.672;23.296;2022-11-23T03:56:22;11.03;;;7.17;;
35891;SDS011;21993;42.672;23.296;2022-11-23T03:58:48;11.97;;;7.20;;
35891;SDS011;21993;42.672;23.296;2022-11-23T04:01:14;10.83;;;6.83;;
35891;SDS011;21993;42.672;23.296;2022-11-23T04:03:39;9.37;;;6.27;;
35891;SDS011;21993;42.672;23.296;2022-11-23T04:06:05;11.83;;;7.70;;
35891;SDS011;21993;42.672;23.296;2022-11-23T04:08:30;8.43;;;6.27;;
35891;SDS011;21993;42.672;23.296;2022-11-23T04:10:56;9.90;;;6.93;;
35891;SDS011;21993;42.672;23.296;2022-11-23T04:13:22;7.67;;;5.90;;
35891;SDS011;21993;42.672;23.296;2022-11-23T04:15:48;9.30;;;6.50;;
35891;SDS011;21993;42.672;23.296;2022-11-23T04:18:13;8.70;;;6.63;;
35891;SDS011;21993;42.672;23.296;2022-11-23T04:20:39;8.77;;;6.60;;
35891;SDS011;21993;42.672;23.296;2022-11-23T04:23:04;11.63;;;7.30;;
35891;SDS011;21993;42.672;23.296;2022-11-23T04:25:30;12.07;;;7.80;;
35891;SDS011;21993;42.672;23.296;2022-11-23T04:27:55;11.67;;;7.07;;
35891;SDS011;21993;42.672;23.296;2022-11-23T04:30:21;14.63;;;8.70;;
35891;SDS011;21993;42.672;23.296;2022-11-23T04:32:46;11.00;;;7.33;;
35891;SDS011;21993;42.672;23.296;2022-11-23T04:35:12;13.67;;;8.43;;
35891;SDS011;21993;42.672;23.296;2022-11-23T04:37:37;9.53;;;6.83;;
35891;SDS011;21993;42.672;23.296;2022-11-23T04:40:03;10.63;;;7.30;;
35891;SDS011;21993;42.672;23.296;2022-11-23T04:42:29;10.67;;;7.40;;
35891;SDS011;21993;42.672;23.296;2022-11-23T04:44:54;11.50;;;8.30;;
35891;SDS011;21993;42.672;23.296;2022-11-23T04:47:21;11.97;;;8.87;;
35891;SDS011;21993;42.672;23.296;2022-11-23T04:49:47;12.73;;;7.83;;
35891;SDS011;21993;42.672;23.296;2022-11-23T04:52:12;12.60;;;7.70;;
35891;SDS011;21993;42.672;23.296;2022-11-23T04:54:37;11.03;;;7.13;;
35891;SDS011;21993;42.672;23.296;2022-11-23T04:57:03;15.60;;;8.80;;
35891;SDS011;21993;42.672;23.296;2022-11-23T04:59:28;13.77;;;8.60;;
35891;SDS011;21993;42.672;23.296;2022-11-23T05:01:54;12.53;;;8.70;;
35891;SDS011;21993;42.672;23.296;2022-11-23T05:04:19;12.87;;;9.00;;
35891;SDS011;21993;42.672;23.296;2022-11-23T05:06:45;15.27;;;8.87;;
35891;SDS011;21993;42.672;23.296;2022-11-23T05:09:10;13.03;;;8.27;;
35891;SDS011;21993;42.672;23.296;2022-11-23T05:11:36;13.63;;;9.33;;
35891;SDS011;21993;42.672;23.296;2022-11-23T05:14:02;13.23;;;9.90;;
35891;SDS011;21993;42.672;23.296;2022-11-23T05:16:27;17.03;;;9.90;;
35891;SDS011;21993;42.672;23.296;2022-11-23T05:18:53;13.87;;;9.33;;
35891;SDS011;21993;42.672;23.296;2022-11-23T05:21:18;16.63;;;10.20;;
35891;SDS011;21993;42.672;23.296;2022-11-23T05:23:44;16.50;;;10.07;;
35891;SDS011;21993;42.672;23.296;2022-11-23T05:26:09;20.63;;;13.03;;
35891;SDS011;21993;42.672;23.296;2022-11-23T05:28:34;23.60;;;13.50;;
35891;SDS011;21993;42.672;23.296;2022-11-23T05:31:02;19.47;;;12.77;;
35891;SDS011;21993;42.672;23.296;2022-11-23T05:33:28;19.13;;;13.00;;
35891;SDS011;21993;42.672;23.296;2022-11-23T05:35:53;20.63;;;13.00;;
35891;SDS011;21993;42.672;23.296;2022-11-23T05:38:19;24.17;;;14.03;;
35891;SDS011;21993;42.672;23.296;2022-11-23T05:40:44;21.23;;;13.53;;
35891;SDS011;21993;42.672;23.296;2022-11-23T05:43:10;24.20;;;16.07;;
35891;SDS011;21993;42.672;23.296;2022-11-23T05:45:36;22.47;;;13.27;;
35891;SDS011;21993;42.672;23.296;2022-11-23T05:48:01;21.67;;;12.93;;
35891;SDS011;21993;42.672;23.296;2022-11-23T05:50:27;20.00;;;12.20;;
35891;SDS011;21993;42.672;23.296;2022-11-23T05:52:54;18.03;;;11.93;;
35891;SDS011;21993;42.672;23.296;2022-11-23T05:55:21;22.50;;;13.83;;
35891;SDS011;21993;42.672;23.296;2022-11-23T05:57:46;17.67;;;12.17;;
35891;SDS011;21993;42.672;23.296;2022-11-23T06:00:12;23.33;;;14.80;;
35891;SDS011;21993;42.672;23.296;2022-11-23T06:02:37;21.83;;;13.97;;
35891;SDS011;21993;42.672;23.296;2022-11-23T06:05:03;22.17;;;15.00;;
35891;SDS011;21993;42.672;23.296;2022-11-23T06:07:32;21.40;;;13.90;;
35891;SDS011;21993;42.672;23.296;2022-11-23T06:09:58;26.20;;;14.00;;
35891;SDS011;21993;42.672;23.296;2022-11-23T06:12:23;23.53;;;14.17;;
35891;SDS011;21993;42.672;23.296;2022-11-23T06:14:49;21.03;;;13.20;;
35891;SDS011;21993;42.672;23.296;2022-11-23T06:17:14;24.87;;;12.97;;
35891;SDS011;21993;42.672;23.296;2022-11-23T06:19:40;21.63;;;13.03;;
35891;SDS011;21993;42.672;23.296;2022-11-23T06:22:05;19.83;;;12.53;;
35891;SDS011;21993;42.672;23.296;2022-11-23T06:24:31;19.53;;;13.23;;
35891;SDS011;21993;42.672;23.296;2022-11-23T06:26:56;24.77;;;14.00;;
35891;SDS011;21993;42.672;23.296;2022-11-23T06:29:22;18.23;;;12.20;;
35891;SDS011;21993;42.672;23.296;2022-11-23T06:31:47;25.93;;;14.73;;
35891;SDS011;21993;42.672;23.296;2022-11-23T06:34:12;22.43;;;13.70;;
35891;SDS011;21993;42.672;23.296;2022-11-23T06:36:38;17.67;;;13.23;;
35891;SDS011;21993;42.672;23.296;2022-11-23T06:39:04;21.57;;;13.60;;
35891;SDS011;21993;42.672;23.296;2022-11-23T06:41:29;22.63;;;13.30;;
35891;SDS011;21993;42.672;23.296;2022-11-23T06:43:55;20.57;;;13.50;;
35891;SDS011;21993;42.672;23.296;2022-11-23T06:46:20;19.50;;;13.00;;
35891;SDS011;21993;42.672;23.296;2022-11-23T06:48:46;23.30;;;15.17;;
35891;SDS011;21993;42.672;23.296;2022-11-23T06:51:12;20.43;;;13.57;;
35891;SDS011;21993;42.672;23.296;2022-11-23T06:53:38;21.57;;;14.23;;
35891;SDS011;21993;42.672;23.296;2022-11-23T06:56:03;23.73;;;13.50;;
35891;SDS011;21993;42.672;23.296;2022-11-23T06:58:29;20.70;;;13.30;;
35891;SDS011;21993;42.672;23.296;2022-11-23T07:01:01;20.63;;;12.57;;
35891;SDS011;21993;42.672;23.296;2022-11-23T07:03:29;22.67;;;13.37;;
35891;SDS011;21993;42.672;23.296;2022-11-23T07:05:55;17.77;;;12.67;;
35891;SDS011;21993;42.672;23.296;2022-11-23T07:08:21;20.60;;;13.27;;
35891;SDS011;21993;42.672;23.296;2022-11-23T07:10:46;20.13;;;13.97;;
35891;SDS011;21993;42.672;23.296;2022-11-23T07:13:12;18.23;;;12.90;;
35891;SDS011;21993;42.672;23.296;2022-11-23T07:15:38;21.30;;;13.90;;
35891;SDS011;21993;42.672;23.296;2022-11-23T07:18:04;17.93;;;12.87;;
35891;SDS011;21993;42.672;23.296;2022-11-23T07:20:31;21.53;;;14.10;;
35891;SDS011;21993;42.672;23.296;2022-11-23T07:23:04;18.50;;;11.57;;
35891;SDS011;21993;42.672;23.296;2022-11-23T07:25:31;20.07;;;12.97;;
35891;SDS011;21993;42.672;23.296;2022-11-23T07:27:58;20.87;;;12.73;;
35891;SDS011;21993;42.672;23.296;2022-11-23T07:30:24;19.77;;;12.30;;
35891;SDS011;21993;42.672;23.296;2022-11-23T07:32:50;19.97;;;12.60;;
35891;SDS011;21993;42.672;23.296;2022-11-23T07:35:17;21.07;;;11.93;;
35891;SDS011;21993;42.672;23.296;2022-11-23T07:37:45;19.20;;;12.13;;
35891;SDS011;21993;42.672;23.296;2022-11-23T07:40:11;16.13;;;12.00;;
35891;SDS011;21993;42.672;23.296;2022-11-23T07:42:36;17.10;;;11.90;;
35891;SDS011;21993;42.672;23.296;2022-11-23T07:45:03;18.73;;;13.77;;
35891;SDS011;21993;42.672;23.296;2022-11-23T07:47:29;19.53;;;12.60;;
35891;SDS011;21993;42.672;23.296;2022-11-23T07:49:54;17.33;;;12.33;;
35891;SDS011;21993;42.672;23.296;2022-11-23T07:52:20;20.47;;;13.20;;
35891;SDS011;21993;42.672;23.296;2022-11-23T07:54:45;20.10;;;12.30;;
35891;SDS011;21993;42.672;23.296;2022-11-23T07:57:10;17.63;;;10.73;;
35891;SDS011;21993;42.672;23.296;2022-11-23T07:59:36;19.43;;;13.17;;
35891;SDS011;21993;42.672;23.296;2022-11-23T08:02:01;20.90;;;12.47;;
35891;SDS011;21993;42.672;23.296;2022-11-23T08:04:27;18.93;;;11.83;;
35891;SDS011;21993;42.672;23.296;2022-11-23T08:06:53;19.43;;;12.33;;
35891;SDS011;21993;42.672;23.296;2022-11-23T08:09:19;20.03;;;11.13;;
35891;SDS011;21993;42.672;23.296;2022-11-23T08:11:44;24.60;;;13.13;;
35891;SDS011;21993;42.672;23.296;2022-11-23T08:14:10;21.00;;;12.37;;
35891;SDS011;21993;42.672;23.296;2022-11-23T08:16:35;18.53;;;11.97;;
35891;SDS011;21993;42.672;23.296;2022-11-23T08:19:01;16.50;;;11.50;;
35891;SDS011;21993;42.672;23.296;2022-11-23T08:21:26;18.03;;;11.53;;
35891;SDS011;21993;42.672;23.296;2022-11-23T08:23:52;19.17;;;12.23;;
35891;SDS011;21993;42.672;23.296;2022-11-23T08:26:17;21.20;;;12.23;;
35891;SDS011;21993;42.672;23.296;2022-11-23T08:28:42;19.00;;;12.50;;
35891;SDS011;21993;42.672;23.296;2022-11-23T08:31:09;19.90;;;13.00;;
35891;SDS011;21993;42.672;23.296;2022-11-23T08:33:38;18.43;;;12.77;;
35891;SDS011;21993;42.672;23.296;2022-11-23T08:36:05;17.33;;;11.70;;
35891;SDS011;21993;42.672;23.296;2022-11-23T08:38:32;22.27;;;12.43;;
35891;SDS011;21993;42.672;23.296;2022-11-23T08:41:01;20.73;;;13.90;;
35891;SDS011;21993;42.672;23.296;2022-11-23T08:43:27;21.60;;;14.30;;
35891;SDS011;21993;42.672;23.296;2022-11-23T08:45:53;20.83;;;14.23;;
35891;SDS011;21993;42.672;23.296;2022-11-23T08:48:19;19.60;;;13.87;;
35891;SDS011;21993;42.672;23.296;2022-11-23T08:50:45;23.57;;;14.37;;
35891;SDS011;21993;42.672;23.296;2022-11-23T08:53:10;24.13;;;15.00;;
35891;SDS011;21993;42.672;23.296;2022-11-23T08:55:36;26.07;;;14.20;;
35891;SDS011;21993;42.672;23.296;2022-11-23T08:58:01;24.30;;;14.10;;
35891;SDS011;21993;42.672;23.296;2022-11-23T09:00:27;25.10;;;15.17;;
35891;SDS011;21993;42.672;23.296;2022-11-23T09:02:53;19.97;;;13.33;;
35891;SDS011;21993;42.672;23.296;2022-11-23T09:05:19;21.87;;;13.97;;
35891;SDS011;21993;42.672;23.296;2022-11-23T09:07:44;21.40;;;14.23;;
35891;SDS011;21993;42.672;23.296;2022-11-23T09:10:10;21.83;;;13.60;;
35891;SDS011;21993;42.672;23.296;2022-11-23T09:12:35;20.70;;;13.37;;
35891;SDS011;21993;42.672;23.296;2022-11-23T09:15:00;21.67;;;13.47;;
35891;SDS011;21993;42.672;23.296;2022-11-23T09:17:26;19.47;;;13.83;;
35891;SDS011;21993;42.672;23.296;2022-11-23T09:19:51;20.30;;;13.97;;
35891;SDS011;21993;42.672;23.296;2022-11-23T09:22:17;18.00;;;12.80;;
35891;SDS011;21993;42.672;23.296;2022-11-23T09:24:42;19.03;;;13.47;;
35891;SDS011;21993;42.672;23.296;2022-11-23T09:27:07;20.40;;;13.17;;
35891;SDS011;21993;42.672;23.296;2022-11-23T09:29:33;18.63;;;12.60;;
35891;SDS011;21993;42.672;23.296;2022-11-23T09:32:00;21.80;;;12.97;;
35891;SDS011;21993;42.672;23.296;2022-11-23T09:34:26;20.50;;;12.47;;
35891;SDS011;21993;42.672;23.296;2022-11-23T09:36:51;19.20;;;12.50;;
35891;SDS011;21993;42.672;23.296;2022-11-23T09:39:17;18.33;;;12.37;;
35891;SDS011;21993;42.672;23.296;2022-11-23T09:52:22;10.23;;;8.70;;
35891;SDS011;21993;42.672;23.296;2022-11-23T09:54:50;12.57;;;7.93;;
35891;SDS011;21993;42.672;23.296;2022-11-23T09:57:20;10.00;;;7.77;;
35891;SDS011;21993;42.672;23.296;2022-11-23T09:59:54;11.10;;;8.30;;
35891;SDS011;21993;42.672;23.296;2022-11-23T10:02:24;13.20;;;9.20;;
35891;SDS011;21993;42.672;23.296;2022-11-23T10:04:53;15.17;;;9.60;;
35891;SDS011;21993;42.672;23.296;2022-11-23T10:09:55;12.53;;;7.57;;
35891;SDS011;21993;42.672;23.296;2022-11-23T10:15:27;10.37;;;6.43;;
35891;SDS011;21993;42.672;23.296;2022-11-23T10:18:04;8.83;;;6.70;;
35891;SDS011;21993;42.672;23.296;2022-11-23T10:20:52;8.00;;;6.87;;
35891;SDS011;21993;42.672;23.296;2022-11-23T10:26:05;7.77;;;5.50;;
35891;SDS011;21993;42.672;23.296;2022-11-23T10:28:36;11.30;;;7.27;;
35891;SDS011;21993;42.672;23.296;2022-11-23T10:31:18;8.73;;;5.93;;
35891;SDS011;21993;42.672;23.296;2022-11-23T10:33:55;7.10;;;5.70;;
35891;SDS011;21993;42.672;23.296;2022-11-23T10:36:28;9.60;;;6.37;;
35891;SDS011;21993;42.672;23.296;2022-11-23T10:38:55;9.00;;;6.07;;
35891;SDS011;21993;42.672;23.296;2022-11-23T10:41:23;6.50;;;5.13;;
35891;SDS011;21993;42.672;23.296;2022-11-23T10:43:50;10.70;;;6.30;;
35891;SDS011;21993;42.672;23.296;2022-11-23T10:46:28;8.40;;;5.73;;
35891;SDS011;21993;42.672;23.296;2022-11-23T10:49:17;7.10;;;5.60;;
35891;SDS011;21993;42.672;23.296;2022-11-23T10:51:52;8.27;;;5.60;;
35891;SDS011;21993;42.672;23.296;2022-11-23T10:54:34;9.13;;;5.60;;
35891;SDS011;21993;42.672;23.296;2022-11-23T10:57:29;7.30;;;4.47;;
35891;SDS011;21993;42.672;23.296;2022-11-23T11:03:05;7.10;;;5.43;;
35891;SDS011;21993;42.672;23.296;2022-11-23T11:08:01;5.67;;;4.03;;
35891;SDS011;21993;42.672;23.296;2022-11-23T11:16:03;10.23;;;7.30;;
35891;SDS011;21993;42.672;23.296;2022-11-23T11:18:31;11.73;;;6.67;;
35891;SDS011;21993;42.672;23.296;2022-11-23T11:21:06;7.80;;;5.07;;
35891;SDS011;21993;42.672;23.296;2022-11-23T11:23:43;8.80;;;5.17;;
35891;SDS011;21993;42.672;23.296;2022-11-23T11:26:20;7.90;;;5.40;;
35891;SDS011;21993;42.672;23.296;2022-11-23T11:28:48;6.90;;;4.80;;
35891;SDS011;21993;42.672;23.296;2022-11-23T11:36:35;8.10;;;4.47;;
35891;SDS011;21993;42.672;23.296;2022-11-23T11:39:14;6.23;;;4.30;;
35891;SDS011;21993;42.672;23.296;2022-11-23T11:41:47;5.60;;;3.73;;
35891;SDS011;21993;42.672;23.296;2022-11-23T11:44:19;3.60;;;3.30;;
35891;SDS011;21993;42.672;23.296;2022-11-23T11:46:55;6.67;;;3.27;;
35891;SDS011;21993;42.672;23.296;2022-11-23T11:49:26;4.73;;;2.93;;
35891;SDS011;21993;42.672;23.296;2022-11-23T11:52:17;3.87;;;2.63;;
35891;SDS011;21993;42.672;23.296;2022-11-23T11:54:55;5.80;;;2.50;;
35891;SDS011;21993;42.672;23.296;2022-11-23T11:57:23;4.03;;;2.57;;
35891;SDS011;21993;42.672;23.296;2022-11-23T11:59:55;3.07;;;2.40;;
35891;SDS011;21993;42.672;23.296;2022-11-23T12:07:36;4.87;;;3.17;;
35891;SDS011;21993;42.672;23.296;2022-11-23T12:10:23;2.30;;;2.10;;
35891;SDS011;21993;42.672;23.296;2022-11-23T12:12:52;4.13;;;2.20;;
35891;SDS011;21993;42.672;23.296;2022-11-23T12:15:23;5.33;;;2.20;;
35891;SDS011;21993;42.672;23.296;2022-11-23T12:28:59;2.70;;;1.90;;
35891;SDS011;21993;42.672;23.296;2022-11-23T12:31:48;2.40;;;1.70;;
35891;SDS011;21993;42.672;23.296;2022-11-23T12:42:43;1.33;;;1.23;;
35891;SDS011;21993;42.672;23.296;2022-11-23T12:48:13;1.60;;;1.47;;
35891;SDS011;21993;42.672;23.296;2022-11-23T12:50:51;2.20;;;1.20;;
35891;SDS011;21993;42.672;23.296;2022-11-23T12:56:35;2.60;;;1.53;;
35891;SDS011;21993;42.672;23.296;2022-11-23T12:59:17;2.13;;;1.20;;
35891;SDS011;21993;42.672;23.296;2022-11-23T13:01:45;1.30;;;1.20;;
35891;SDS011;21993;42.672;23.296;2022-11-23T13:17:40;1.90;;;1.30;;
35891;SDS011;21993;42.672;23.296;2022-11-23T13:22:48;2.13;;;1.33;;
35891;SDS011;21993;42.672;23.296;2022-11-23T13:25:27;2.90;;;1.50;;
35891;SDS011;21993;42.672;23.296;2022-11-23T13:27:54;2.07;;;1.70;;
35891;SDS011;21993;42.672;23.296;2022-11-23T13:32:53;1.90;;;1.40;;
35891;SDS011;21993;42.672;23.296;2022-11-23T13:40:25;3.67;;;1.60;;
35891;SDS011;21993;42.672;23.296;2022-11-23T13:42:53;2.93;;;2.00;;
35891;SDS011;21993;42.672;23.296;2022-11-23T13:45:22;6.90;;;2.10;;
35891;SDS011;21993;42.672;23.296;2022-11-23T13:50:37;3.33;;;1.87;;
35891;SDS011;21993;42.672;23.296;2022-11-23T13:55:52;3.67;;;2.17;;
35891;SDS011;21993;42.672;23.296;2022-11-23T14:00:48;3.60;;;2.43;;
35891;SDS011;21993;42.672;23.296;2022-11-23T14:20:30;1.23;;;1.13;;
35891;SDS011;21993;42.672;23.296;2022-11-23T14:35:27;4.67;;;1.63;;
35891;SDS011;21993;42.672;23.296;2022-11-23T14:40:56;4.10;;;1.50;;
35891;SDS011;21993;42.672;23.296;2022-11-23T14:43:39;3.93;;;1.87;;
35891;SDS011;21993;42.672;23.296;2022-11-23T14:46:12;2.20;;;1.60;;
35891;SDS011;21993;42.672;23.296;2022-11-23T14:48:43;3.80;;;2.50;;
35891;SDS011;21993;42.672;23.296;2022-11-23T14:51:15;4.73;;;2.53;;
35891;SDS011;21993;42.672;23.296;2022-11-23T14:53:44;7.77;;;3.23;;
35891;SDS011;21993;42.672;23.296;2022-11-23T14:56:20;7.50;;;2.93;;
35891;SDS011;21993;42.672;23.296;2022-11-23T14:58:49;8.67;;;3.70;;
35891;SDS011;21993;42.672;23.296;2022-11-23T15:01:18;6.23;;;4.47;;
35891;SDS011;21993;42.672;23.296;2022-11-23T15:04:05;4.67;;;3.57;;
35891;SDS011;21993;42.672;23.296;2022-11-23T15:06:33;3.53;;;2.63;;
35891;SDS011;21993;42.672;23.296;2022-11-23T15:11:49;3.80;;;2.57;;
35891;SDS011;21993;42.672;23.296;2022-11-23T15:14:18;6.80;;;2.90;;
35891;SDS011;21993;42.672;23.296;2022-11-23T15:16:44;8.73;;;2.47;;
35891;SDS011;21993;42.672;23.296;2022-11-23T15:21:48;8.70;;;3.20;;
35891;SDS011;21993;42.672;23.296;2022-11-23T15:24:22;8.10;;;3.17;;
35891;SDS011;21993;42.672;23.296;2022-11-23T15:26:49;5.03;;;3.07;;
35891;SDS011;21993;42.672;23.296;2022-11-23T15:29:34;6.63;;;3.63;;
35891;SDS011;21993;42.672;23.296;2022-11-23T15:32:00;8.40;;;3.87;;
35891;SDS011;21993;42.672;23.296;2022-11-23T15:34:27;6.47;;;3.33;;
35891;SDS011;21993;42.672;23.296;2022-11-23T15:36:54;3.50;;;2.40;;
35891;SDS011;21993;42.672;23.296;2022-11-23T15:39:20;3.93;;;2.50;;
35891;SDS011;21993;42.672;23.296;2022-11-23T15:41:48;11.23;;;4.33;;
35891;SDS011;21993;42.672;23.296;2022-11-23T15:44:26;5.10;;;4.00;;
35891;SDS011;21993;42.672;23.296;2022-11-23T15:46:59;6.63;;;3.40;;
35891;SDS011;21993;42.672;23.296;2022-11-23T15:49:30;7.03;;;3.93;;
35891;SDS011;21993;42.672;23.296;2022-11-23T15:52:01;4.60;;;2.77;;
35891;SDS011;21993;42.672;23.296;2022-11-23T15:54:36;8.93;;;5.83;;
35891;SDS011;21993;42.672;23.296;2022-11-23T15:57:06;4.93;;;3.27;;
35891;SDS011;21993;42.672;23.296;2022-11-23T16:02:33;9.27;;;4.20;;
35891;SDS011;21993;42.672;23.296;2022-11-23T16:07:49;5.80;;;3.37;;
35891;SDS011;21993;42.672;23.296;2022-11-23T16:10:19;5.43;;;3.37;;
35891;SDS011;21993;42.672;23.296;2022-11-23T16:12:50;6.07;;;3.23;;
35891;SDS011;21993;42.672;23.296;2022-11-23T16:18:02;8.37;;;4.10;;
35891;SDS011;21993;42.672;23.296;2022-11-23T16:20:29;7.20;;;3.97;;
35891;SDS011;21993;42.672;23.296;2022-11-23T16:22:55;6.00;;;3.77;;
35891;SDS011;21993;42.672;23.296;2022-11-23T16:25:30;5.90;;;3.80;;
35891;SDS011;21993;42.672;23.296;2022-11-23T16:28:02;9.63;;;4.20;;
35891;SDS011;21993;42.672;23.296;2022-11-23T16:30:36;3.90;;;2.83;;
35891;SDS011;21993;42.672;23.296;2022-11-23T16:33:04;7.97;;;3.87;;
35891;SDS011;21993;42.672;23.296;2022-11-23T16:35:30;5.03;;;3.83;;
35891;SDS011;21993;42.672;23.296;2022-11-23T16:37:56;9.97;;;4.37;;
35891;SDS011;21993;42.672;23.296;2022-11-23T16:40:21;6.30;;;3.90;;
35891;SDS011;21993;42.672;23.296;2022-11-23T16:42:50;6.73;;;4.10;;
35891;SDS011;21993;42.672;23.296;2022-11-23T16:45:17;6.33;;;3.90;;
35891;SDS011;21993;42.672;23.296;2022-11-23T16:47:52;6.37;;;3.37;;
35891;SDS011;21993;42.672;23.296;2022-11-23T16:50:36;7.03;;;3.23;;
35891;SDS011;21993;42.672;23.296;2022-11-23T16:53:09;2.83;;;1.70;;
35891;SDS011;21993;42.672;23.296;2022-11-23T16:55:38;2.67;;;1.90;;
35891;SDS011;21993;42.672;23.296;2022-11-23T16:58:04;3.00;;;2.57;;